createdAt,value
2023-05-10T00:00:34.984Z,44.38
2023-05-10T00:01:34.913Z,55.06
2023-05-10T00:02:35.051Z,51.74
2023-05-10T00:03:34.991Z,44.18
2023-05-10T00:04:34.852Z,47.64
2023-05-10T00:05:34.867Z,44.60
2023-05-10T00:06:34.853Z,48.88
2023-05-10T00:07:34.835Z,45.78
2023-05-10T00:08:34.859Z,47.47
2023-05-10T00:09:34.858Z,53.25
2023-05-10T00:10:34.788Z,46.67
2023-05-10T00:11:34.812Z,44.79
2023-05-10T00:12:34.812Z,45.46
2023-05-10T00:13:34.773Z,44.14
2023-05-10T00:14:34.797Z,43.93
2023-05-10T00:15:34.755Z,46.82
2023-05-10T00:16:34.778Z,44.54
2023-05-10T00:17:34.750Z,45.78
2023-05-10T00:18:34.758Z,49.56
2023-05-10T00:19:34.715Z,45.54
2023-05-10T00:20:34.688Z,48.55
2023-05-10T00:21:34.764Z,44.72
2023-05-10T00:22:34.712Z,45.15
2023-05-10T00:23:34.682Z,47.67
2023-05-10T00:24:34.679Z,46.83
2023-05-10T00:25:34.658Z,47.71
2023-05-10T00:26:34.613Z,47.02
2023-05-10T00:27:34.630Z,47.85
2023-05-10T00:28:34.629Z,51.54
2023-05-10T00:29:34.610Z,53.25
2023-05-10T00:30:34.636Z,46.97
2023-05-10T00:31:34.687Z,44.92
2023-05-10T00:32:34.616Z,47.58
2023-05-10T00:33:34.564Z,47.04
2023-05-10T00:34:34.588Z,43.48
2023-05-10T00:35:34.553Z,47.70
2023-05-10T00:36:34.515Z,44.99
2023-05-10T00:37:34.527Z,48.60
2023-05-10T00:38:35.495Z,46.64
2023-05-10T00:39:34.505Z,43.89
2023-05-10T00:40:34.558Z,46.59
2023-05-10T00:41:34.485Z,43.11
2023-05-10T00:42:34.457Z,46.36
2023-05-10T00:43:34.455Z,47.31
2023-05-10T00:44:34.465Z,46.55
2023-05-10T00:45:34.444Z,47.75
2023-05-10T00:46:34.579Z,45.99
2023-05-10T00:47:34.497Z,45.85
2023-05-10T00:48:34.385Z,45.63
2023-05-10T00:49:34.396Z,48.87
2023-05-10T00:50:34.399Z,44.29
2023-05-10T00:51:34.380Z,48.62
2023-05-10T00:52:34.340Z,43.91
2023-05-10T00:53:34.392Z,45.48
2023-05-10T00:54:34.326Z,46.40
2023-05-10T00:55:34.342Z,49.83
2023-05-10T00:56:34.378Z,51.55
2023-05-10T00:57:34.342Z,52.28
2023-05-10T00:58:34.279Z,51.22
2023-05-10T00:59:34.286Z,49.23
2023-05-10T01:00:34.309Z,48.07
2023-05-10T01:01:34.307Z,45.73
2023-05-10T01:02:34.337Z,46.53
2023-05-10T01:03:34.302Z,52.54
2023-05-10T01:04:34.343Z,46.13
2023-05-10T01:05:34.218Z,48.81
2023-05-10T01:06:34.198Z,48.30
2023-05-10T01:07:34.215Z,47.32
2023-05-10T01:08:34.214Z,48.88
2023-05-10T01:09:34.174Z,50.02
2023-05-10T01:10:34.187Z,49.80
2023-05-10T01:11:34.190Z,48.29
2023-05-10T01:12:34.184Z,47.89
2023-05-10T01:13:34.142Z,54.44
2023-05-10T01:14:34.158Z,49.02
2023-05-10T01:15:34.258Z,55.19
2023-05-10T01:16:34.269Z,46.11
2023-05-10T01:17:34.124Z,47.13
2023-05-10T01:18:34.103Z,51.35
2023-05-10T01:19:34.062Z,48.75
2023-05-10T01:20:34.119Z,50.93
2023-05-10T01:21:34.064Z,49.01
2023-05-10T01:22:34.065Z,48.18
2023-05-10T01:23:34.053Z,45.48
2023-05-10T01:24:34.028Z,50.49
2023-05-10T01:25:34.057Z,54.10
2023-05-10T01:26:34.026Z,51.71
2023-05-10T01:27:34.994Z,50.37
2023-05-10T01:28:33.986Z,48.72
2023-05-10T01:29:33.955Z,49.10
2023-05-10T01:30:33.978Z,50.28
2023-05-10T01:31:33.964Z,49.09
2023-05-10T01:32:33.973Z,48.75
2023-05-10T01:33:34.930Z,48.71
2023-05-10T01:34:33.926Z,50.61
2023-05-10T01:35:33.909Z,50.31
2023-05-10T01:36:33.866Z,45.92
2023-05-10T01:37:33.894Z,45.20
2023-05-10T01:38:33.891Z,47.89
2023-05-10T01:39:33.876Z,48.19
2023-05-10T01:40:33.848Z,51.55
2023-05-10T01:41:33.834Z,46.67
2023-05-10T01:42:33.804Z,46.42
2023-05-10T01:43:33.819Z,49.84
2023-05-10T01:44:33.852Z,49.93
2023-05-10T01:45:33.791Z,48.20
2023-05-10T01:46:33.769Z,47.55
2023-05-10T01:47:33.782Z,53.87
2023-05-10T01:48:33.811Z,47.58
2023-05-10T01:49:33.740Z,48.34
2023-05-10T01:50:33.751Z,48.12
2023-05-10T01:51:33.776Z,50.17
2023-05-10T01:52:33.682Z,46.54
2023-05-10T01:53:33.715Z,52.22
2023-05-10T01:54:33.719Z,49.64
2023-05-10T01:55:33.674Z,46.17
2023-05-10T01:56:33.690Z,49.93
2023-05-10T01:57:33.669Z,48.50
2023-05-10T01:58:33.626Z,47.18
2023-05-10T01:59:33.651Z,48.45
2023-05-10T02:00:33.672Z,46.73
2023-05-10T02:02:06.735Z,48.61
2023-05-10T02:02:33.621Z,47.62
2023-05-10T02:03:33.666Z,50.12
2023-05-10T02:04:33.583Z,51.73
2023-05-10T02:05:33.559Z,48.20
2023-05-10T02:06:33.568Z,49.67
2023-05-10T02:07:33.539Z,54.05
2023-05-10T02:08:33.535Z,56.34
2023-05-10T02:09:33.543Z,59.35
2023-05-10T02:10:33.517Z,59.36
2023-05-10T02:11:33.497Z,57.34
2023-05-10T02:12:33.480Z,58.33
2023-05-10T02:13:33.520Z,62.26
2023-05-10T02:14:33.477Z,66.20
2023-05-10T02:15:33.453Z,64.50
2023-05-10T02:16:33.558Z,58.88
2023-05-10T02:17:33.505Z,54.86
2023-05-10T02:18:33.417Z,54.10
2023-05-10T02:19:33.421Z,53.20
2023-05-10T02:20:33.421Z,54.08
2023-05-10T02:21:33.413Z,55.02
2023-05-10T02:22:33.386Z,55.83
2023-05-10T02:23:33.386Z,58.55
2023-05-10T02:24:33.378Z,61.07
2023-05-10T02:25:33.364Z,56.64
2023-05-10T02:26:33.333Z,56.51
2023-05-10T02:27:33.328Z,53.95
2023-05-10T02:28:33.315Z,55.60
2023-05-10T02:29:33.318Z,49.87
2023-05-10T02:30:33.311Z,54.30
2023-05-10T02:31:33.325Z,53.19
2023-05-10T02:32:33.289Z,49.83
2023-05-10T02:33:33.276Z,48.70
2023-05-10T02:34:33.274Z,46.50
2023-05-10T02:35:33.249Z,48.78
2023-05-10T02:36:33.350Z,50.32
2023-05-10T02:37:33.227Z,53.70
2023-05-10T02:38:33.202Z,51.66
2023-05-10T02:39:33.211Z,54.63
2023-05-10T02:40:33.186Z,59.67
2023-05-10T02:41:33.216Z,67.64
2023-05-10T02:42:33.160Z,68.68
2023-05-10T02:43:33.204Z,66.58
2023-05-10T02:44:33.245Z,58.73
2023-05-10T02:45:33.208Z,56.35
2023-05-10T02:46:33.143Z,58.43
2023-05-10T02:47:33.181Z,58.00
2023-05-10T02:48:33.190Z,56.94
2023-05-10T02:49:33.087Z,55.94
2023-05-10T02:50:33.087Z,58.34
2023-05-10T02:51:33.092Z,55.63
2023-05-10T02:52:33.072Z,51.11
2023-05-10T02:53:33.078Z,55.34
2023-05-10T02:54:33.024Z,58.17
2023-05-10T02:55:33.017Z,58.37
2023-05-10T02:56:33.039Z,58.41
2023-05-10T02:57:33.000Z,52.61
2023-05-10T02:58:32.987Z,58.10
2023-05-10T02:59:32.979Z,58.15
2023-05-10T03:00:32.987Z,58.74
2023-05-10T03:01:33.003Z,57.17
2023-05-10T03:02:32.996Z,59.07
2023-05-10T03:03:32.950Z,58.28
2023-05-10T03:04:33.073Z,56.98
2023-05-10T03:05:32.906Z,56.78
2023-05-10T03:06:32.927Z,57.15
2023-05-10T03:07:32.881Z,55.88
2023-05-10T03:08:32.885Z,58.78
2023-05-10T03:09:32.879Z,55.80
2023-05-10T03:10:32.855Z,54.07
2023-05-10T03:11:32.835Z,55.95
2023-05-10T03:12:32.834Z,56.70
2023-05-10T03:13:32.943Z,59.44
2023-05-10T03:14:32.803Z,57.32
2023-05-10T03:15:32.813Z,56.67
2023-05-10T03:16:32.932Z,57.07
2023-05-10T03:17:32.801Z,58.80
2023-05-10T03:18:32.760Z,56.25
2023-05-10T03:19:32.740Z,62.26
2023-05-10T03:20:32.855Z,55.09
2023-05-10T03:21:32.760Z,55.85
2023-05-10T03:22:32.710Z,57.39
2023-05-10T03:23:32.692Z,57.05
2023-05-10T03:24:32.728Z,58.60
2023-05-10T03:25:32.687Z,57.51
2023-05-10T03:26:32.681Z,55.26
2023-05-10T03:27:32.664Z,57.27
2023-05-10T03:28:32.641Z,57.87
2023-05-10T03:29:32.630Z,58.44
2023-05-10T03:30:32.622Z,57.04
2023-05-10T03:31:32.635Z,59.54
2023-05-10T03:32:32.622Z,58.96
2023-05-10T03:33:32.604Z,59.21
2023-05-10T03:34:32.614Z,59.37
2023-05-10T03:35:32.563Z,57.69
2023-05-10T03:36:32.580Z,58.65
2023-05-10T03:37:33.540Z,60.43
2023-05-10T03:38:32.558Z,58.57
2023-05-10T03:39:32.524Z,59.36
2023-05-10T03:40:32.500Z,60.78
2023-05-10T03:41:32.517Z,61.76
2023-05-10T03:42:32.476Z,60.42
2023-05-10T03:43:32.470Z,60.67
2023-05-10T03:44:32.486Z,58.83
2023-05-10T03:45:32.454Z,59.46
2023-05-10T03:46:32.478Z,59.18
2023-05-10T03:47:32.476Z,58.31
2023-05-10T03:48:32.413Z,59.39
2023-05-10T03:49:32.438Z,59.55
2023-05-10T03:50:32.416Z,60.65
2023-05-10T03:51:32.386Z,59.57
2023-05-10T03:52:32.372Z,60.88
2023-05-10T03:53:32.373Z,60.51
2023-05-10T03:54:32.341Z,59.65
2023-05-10T03:55:32.344Z,59.97
2023-05-10T03:56:32.345Z,58.57
2023-05-10T03:57:32.335Z,60.53
2023-05-10T03:58:32.288Z,61.19
2023-05-10T03:59:33.310Z,63.71
2023-05-10T04:00:32.274Z,61.59
2023-05-10T04:01:32.298Z,59.08
2023-05-10T04:02:32.338Z,61.17
2023-05-10T04:03:32.322Z,60.67
2023-05-10T04:04:32.230Z,60.46
2023-05-10T04:05:32.237Z,58.33
2023-05-10T04:06:32.265Z,60.51
2023-05-10T04:07:32.203Z,60.51
2023-05-10T04:08:32.214Z,58.69
2023-05-10T04:09:32.181Z,59.56
2023-05-10T04:10:32.204Z,58.10
2023-05-10T04:11:32.154Z,59.22
2023-05-10T04:12:32.143Z,57.35
2023-05-10T04:13:32.170Z,60.42
2023-05-10T04:14:32.156Z,59.27
2023-05-10T04:15:32.129Z,62.75
2023-05-10T04:16:32.125Z,60.08
2023-05-10T04:17:32.120Z,62.66
2023-05-10T04:18:32.103Z,61.56
2023-05-10T04:19:32.107Z,60.33
2023-05-10T04:20:32.051Z,62.77
2023-05-10T04:21:32.061Z,62.72
2023-05-10T04:22:32.047Z,63.20
2023-05-10T04:23:32.059Z,59.35
2023-05-10T04:24:32.033Z,60.05
2023-05-10T04:25:31.999Z,64.14
2023-05-10T04:26:31.981Z,63.42
2023-05-10T04:27:31.996Z,62.35
2023-05-10T04:28:31.988Z,61.74
2023-05-10T04:29:31.986Z,60.42
2023-05-10T04:30:32.018Z,64.27
2023-05-10T04:31:31.954Z,63.51
2023-05-10T04:32:31.960Z,62.43
2023-05-10T04:33:31.915Z,62.92
2023-05-10T04:34:31.925Z,62.53
2023-05-10T04:35:31.910Z,61.31
2023-05-10T04:36:31.867Z,66.10
2023-05-10T04:37:31.871Z,61.68
2023-05-10T04:38:31.856Z,61.40
2023-05-10T04:39:31.865Z,64.09
2023-05-10T04:40:31.865Z,63.67
2023-05-10T04:41:31.826Z,63.83
2023-05-10T04:42:31.836Z,61.88
2023-05-10T04:43:31.783Z,63.32
2023-05-10T04:44:31.801Z,60.22
2023-05-10T04:45:31.803Z,58.87
2023-05-10T04:46:31.788Z,63.26
2023-05-10T04:47:31.795Z,62.78
2023-05-10T04:48:31.734Z,59.86
2023-05-10T04:49:31.774Z,63.00
2023-05-10T04:50:31.735Z,61.00
2023-05-10T04:51:31.745Z,65.55
2023-05-10T04:52:31.682Z,59.50
2023-05-10T04:53:31.695Z,60.45
2023-05-10T04:54:31.690Z,61.44
2023-05-10T04:55:31.644Z,60.58
2023-05-10T04:56:31.651Z,60.17
2023-05-10T04:57:31.639Z,63.33
2023-05-10T04:58:31.608Z,61.97
2023-05-10T04:59:31.637Z,61.16
2023-05-10T05:00:31.592Z,60.99
2023-05-10T05:01:31.713Z,59.02
2023-05-10T05:02:31.656Z,61.18
2023-05-10T05:03:31.721Z,61.40
2023-05-10T05:04:31.567Z,60.72
2023-05-10T05:05:32.534Z,59.61
2023-05-10T05:06:31.547Z,60.49
2023-05-10T05:07:31.537Z,62.67
2023-05-10T05:08:31.530Z,59.60
2023-05-10T05:09:31.501Z,59.22
2023-05-10T05:10:31.485Z,61.89
2023-05-10T05:11:31.506Z,60.24
2023-05-10T05:12:31.489Z,59.73
2023-05-10T05:13:31.506Z,64.75
2023-05-10T05:14:31.443Z,62.16
2023-05-10T05:15:31.449Z,63.81
2023-05-10T05:16:31.487Z,62.66
2023-05-10T05:17:31.460Z,62.32
2023-05-10T05:18:31.391Z,62.05
2023-05-10T05:19:31.405Z,64.71
2023-05-10T05:20:31.390Z,62.66
2023-05-10T05:21:31.362Z,60.31
2023-05-10T05:22:31.350Z,60.43
2023-05-10T05:23:31.346Z,63.13
2023-05-10T05:24:31.340Z,60.45
2023-05-10T05:25:31.328Z,61.48
2023-05-10T05:26:31.339Z,62.60
2023-05-10T05:27:31.292Z,64.47
2023-05-10T05:28:31.303Z,65.05
2023-05-10T05:29:31.273Z,64.96
2023-05-10T05:30:31.284Z,64.54
2023-05-10T05:31:31.312Z,61.68
2023-05-10T05:32:31.266Z,66.00
2023-05-10T05:33:31.231Z,63.95
2023-05-10T05:34:31.270Z,63.69
2023-05-10T05:35:31.215Z,63.67
2023-05-10T05:36:31.193Z,65.01
2023-05-10T05:37:31.218Z,64.94
2023-05-10T05:38:31.163Z,62.51
2023-05-10T05:39:31.167Z,64.46
2023-05-10T05:40:31.154Z,61.03
2023-05-10T05:41:31.139Z,66.26
2023-05-10T05:42:31.148Z,68.05
2023-05-10T05:43:31.134Z,71.00
2023-05-10T05:44:31.121Z,70.69
2023-05-10T05:45:31.117Z,66.34
2023-05-10T05:46:31.100Z,65.13
2023-05-10T05:47:31.095Z,64.69
2023-05-10T05:48:31.085Z,64.38
2023-05-10T05:49:31.046Z,63.17
2023-05-10T05:50:32.046Z,63.91
2023-05-10T05:51:31.038Z,63.23
2023-05-10T05:52:31.006Z,62.84
2023-05-10T05:53:31.018Z,61.43
2023-05-10T05:54:31.001Z,65.24
2023-05-10T05:55:31.013Z,65.66
2023-05-10T05:56:30.997Z,64.39
2023-05-10T05:57:30.996Z,63.40
2023-05-10T05:58:30.959Z,64.99
2023-05-10T05:59:30.960Z,61.11
2023-05-10T06:00:31.047Z,62.71
2023-05-10T06:01:30.913Z,63.65
2023-05-10T06:02:31.032Z,62.10
2023-05-10T06:03:30.999Z,63.48
2023-05-10T06:04:31.011Z,64.19
2023-05-10T06:05:30.876Z,65.08
2023-05-10T06:06:30.894Z,62.84
2023-05-10T06:07:30.851Z,62.99
2023-05-10T06:08:30.870Z,65.17
2023-05-10T06:09:30.855Z,71.71
2023-05-10T06:10:30.821Z,64.53
2023-05-10T06:11:30.814Z,63.48
2023-05-10T06:12:30.842Z,63.82
2023-05-10T06:13:30.864Z,62.05
2023-05-10T06:14:30.777Z,64.32
2023-05-10T06:15:30.759Z,66.46
2023-05-10T06:16:30.802Z,69.41
2023-05-10T06:17:30.758Z,66.03
2023-05-10T06:18:30.723Z,64.35
2023-05-10T06:19:30.742Z,61.01
2023-05-10T06:20:30.706Z,63.18
2023-05-10T06:21:30.698Z,64.02
2023-05-10T06:22:30.690Z,62.84
2023-05-10T06:23:30.684Z,64.09
2023-05-10T06:24:30.665Z,67.24
2023-05-10T06:25:30.700Z,65.25
2023-05-10T06:26:30.630Z,61.99
2023-05-10T06:27:30.618Z,61.91
2023-05-10T06:28:30.621Z,60.76
2023-05-10T06:29:30.616Z,62.66
2023-05-10T06:30:30.631Z,61.56
2023-05-10T06:31:30.610Z,58.88
2023-05-10T06:32:30.579Z,57.87
2023-05-10T06:33:30.564Z,62.14
2023-05-10T06:34:30.601Z,57.31
2023-05-10T06:35:30.546Z,58.96
2023-05-10T06:36:30.520Z,58.25
2023-05-10T06:37:30.524Z,59.31
2023-05-10T06:38:30.511Z,62.28
2023-05-10T06:39:30.508Z,58.68
2023-05-10T06:40:30.528Z,59.89
2023-05-10T06:41:30.485Z,62.04
2023-05-10T06:42:30.465Z,61.25
2023-05-10T06:43:30.461Z,59.30
2023-05-10T06:44:30.449Z,59.96
2023-05-10T06:45:30.431Z,59.48
2023-05-10T06:46:30.437Z,58.93
2023-05-10T06:47:30.449Z,63.69
2023-05-10T06:48:30.385Z,58.38
2023-05-10T06:49:30.376Z,59.24
2023-05-10T06:50:30.397Z,59.56
2023-05-10T06:51:30.358Z,58.47
2023-05-10T06:52:30.356Z,59.04
2023-05-10T06:53:30.334Z,58.40
2023-05-10T06:54:30.353Z,61.02
2023-05-10T06:55:30.348Z,57.87
2023-05-10T06:56:30.298Z,59.18
2023-05-10T06:57:32.023Z,59.28
2023-05-10T06:58:31.314Z,58.87
2023-05-10T06:59:30.385Z,58.71
2023-05-10T07:00:30.323Z,58.96
2023-05-10T07:01:30.273Z,59.32
2023-05-10T07:02:30.301Z,58.33
2023-05-10T07:03:30.211Z,60.01
2023-05-10T07:04:30.366Z,58.64
2023-05-10T07:05:30.265Z,55.78
2023-05-10T07:06:33.820Z,61.27
2023-05-10T07:07:31.207Z,62.44
2023-05-10T07:08:30.202Z,63.31
2023-05-10T07:09:30.149Z,62.95
2023-05-10T07:10:30.166Z,60.95
2023-05-10T07:11:30.148Z,63.29
2023-05-10T07:12:30.135Z,60.96
2023-05-10T07:13:30.136Z,62.48
2023-05-10T07:14:30.113Z,61.67
2023-05-10T07:15:30.123Z,63.23
2023-05-10T07:16:30.148Z,62.47
2023-05-10T07:17:30.163Z,62.28
2023-05-10T07:18:30.070Z,62.63
2023-05-10T07:19:30.077Z,65.58
2023-05-10T07:20:30.068Z,61.57
2023-05-10T07:21:30.095Z,62.25
2023-05-10T07:22:30.014Z,61.57
2023-05-10T07:23:30.026Z,62.61
2023-05-10T07:24:29.988Z,62.24
2023-05-10T07:25:29.991Z,61.99
2023-05-10T07:26:29.991Z,62.52
2023-05-10T07:27:29.951Z,64.50
2023-05-10T07:28:29.959Z,62.18
2023-05-10T07:29:29.958Z,60.37
2023-05-10T07:30:29.949Z,63.21
2023-05-10T07:31:29.953Z,61.31
2023-05-10T07:32:30.022Z,59.63
2023-05-10T07:33:29.898Z,60.93
2023-05-10T07:34:29.891Z,61.49
2023-05-10T07:35:29.882Z,61.14
2023-05-10T07:36:29.881Z,60.14
2023-05-10T07:37:29.836Z,59.11
2023-05-10T07:38:29.834Z,63.38
2023-05-10T07:39:29.847Z,61.57
2023-05-10T07:40:29.820Z,61.58
2023-05-10T07:41:29.804Z,57.47
2023-05-10T07:42:29.796Z,59.36
2023-05-10T07:43:29.797Z,59.26
2023-05-10T07:44:29.772Z,60.97
2023-05-10T07:45:29.820Z,60.16
2023-05-10T07:46:29.850Z,62.17
2023-05-10T07:47:29.778Z,60.26
2023-05-10T07:48:29.737Z,59.81
2023-05-10T07:49:29.714Z,61.38
2023-05-10T07:50:29.733Z,62.22
2023-05-10T07:51:29.687Z,60.26
2023-05-10T07:52:29.693Z,60.74
2023-05-10T07:53:29.682Z,61.17
2023-05-10T07:54:29.678Z,60.70
2023-05-10T07:55:29.691Z,58.76
2023-05-10T07:56:29.649Z,58.33
2023-05-10T07:57:29.630Z,60.37
2023-05-10T07:58:29.621Z,58.55
2023-05-10T07:59:29.613Z,61.23
2023-05-10T08:00:29.620Z,57.71
2023-05-10T08:01:29.625Z,61.21
2023-05-10T08:02:29.620Z,60.99
2023-05-10T08:03:29.676Z,61.49
2023-05-10T08:04:29.730Z,61.34
2023-05-10T08:05:29.538Z,59.63
2023-05-10T08:06:29.521Z,59.02
2023-05-10T08:07:29.535Z,62.06
2023-05-10T08:08:29.513Z,59.41
2023-05-10T08:09:29.505Z,57.58
2023-05-10T08:10:29.487Z,62.87
2023-05-10T08:11:29.480Z,60.94
2023-05-10T08:12:29.462Z,60.77
2023-05-10T08:13:29.462Z,66.25
2023-05-10T08:14:29.465Z,62.34
2023-05-10T08:15:29.430Z,68.07
2023-05-10T08:16:29.527Z,64.70
2023-05-10T08:17:29.431Z,60.67
2023-05-10T08:18:29.434Z,61.64
2023-05-10T08:19:29.390Z,63.26
2023-05-10T08:20:29.382Z,60.23
2023-05-10T08:21:29.389Z,60.65
2023-05-10T08:22:29.347Z,58.85
2023-05-10T08:23:29.373Z,60.68
2023-05-10T08:24:29.460Z,60.04
2023-05-10T08:25:29.324Z,59.65
2023-05-10T08:26:29.331Z,58.83
2023-05-10T08:27:29.299Z,61.03
2023-05-10T08:28:29.296Z,59.84
2023-05-10T08:29:32.786Z,61.02
2023-05-10T08:30:30.264Z,60.77
2023-05-10T08:31:29.324Z,63.39
2023-05-10T08:32:29.279Z,60.40
2023-05-10T08:33:29.264Z,61.20
2023-05-10T08:34:29.240Z,62.75
2023-05-10T08:35:29.225Z,59.38
2023-05-10T08:36:29.209Z,61.31
2023-05-10T08:37:29.211Z,57.75
2023-05-10T08:38:29.204Z,59.01
2023-05-10T08:39:30.711Z,56.36
2023-05-10T08:40:30.192Z,59.69
2023-05-10T08:41:29.160Z,60.04
2023-05-10T08:42:29.142Z,60.13
2023-05-10T08:43:29.138Z,60.79
2023-05-10T08:44:29.124Z,60.30
2023-05-10T08:45:29.105Z,61.46
2023-05-10T08:46:29.148Z,59.78
2023-05-10T08:47:29.122Z,57.47
2023-05-10T08:48:29.078Z,62.63
2023-05-10T08:49:29.099Z,60.13
2023-05-10T08:50:29.092Z,61.85
2023-05-10T08:51:29.034Z,64.82
2023-05-10T08:52:29.040Z,75.17
2023-05-10T08:53:29.028Z,66.67
2023-05-10T08:54:29.059Z,66.65
2023-05-10T08:55:29.035Z,60.26
2023-05-10T08:56:28.999Z,60.37
2023-05-10T08:57:28.977Z,61.16
2023-05-10T08:58:28.969Z,56.56
2023-05-10T08:59:29.002Z,59.43
2023-05-10T09:00:28.955Z,62.18
2023-05-10T09:01:28.990Z,60.27
2023-05-10T09:02:29.008Z,59.16
2023-05-10T09:03:28.916Z,60.55
2023-05-10T09:04:29.049Z,61.99
2023-05-10T09:05:28.942Z,70.43
2023-05-10T09:06:28.888Z,70.45
2023-05-10T09:07:28.886Z,61.37
2023-05-10T09:08:28.903Z,58.16
2023-05-10T09:09:28.864Z,61.41
2023-05-10T09:10:28.882Z,68.15
2023-05-10T09:11:28.859Z,64.73
2023-05-10T09:12:28.852Z,68.79
2023-05-10T09:13:28.829Z,62.31
2023-05-10T09:14:28.823Z,61.19
2023-05-10T09:15:28.804Z,60.02
2023-05-10T09:16:28.834Z,63.28
2023-05-10T09:17:28.896Z,62.54
2023-05-10T09:18:28.781Z,68.08
2023-05-10T09:19:28.749Z,73.08
2023-05-10T09:20:28.749Z,80.11
2023-05-10T09:21:28.732Z,65.55
2023-05-10T09:22:28.728Z,58.80
2023-05-10T09:23:28.704Z,67.78
2023-05-10T09:24:28.695Z,72.56
2023-05-10T09:25:28.697Z,62.17
2023-05-10T09:26:28.685Z,62.60
2023-05-10T09:27:28.679Z,71.90
2023-05-10T09:28:28.668Z,60.23
2023-05-10T09:29:28.636Z,57.64
2023-05-10T09:30:28.650Z,59.95
2023-05-10T09:31:28.741Z,66.23
2023-05-10T09:32:28.661Z,66.04
2023-05-10T09:33:28.607Z,61.82
2023-05-10T09:34:28.598Z,68.89
2023-05-10T09:35:29.781Z,71.06
2023-05-10T09:36:29.564Z,63.41
2023-05-10T09:37:28.553Z,59.15
2023-05-10T09:38:29.568Z,64.77
2023-05-10T09:39:28.539Z,65.89
2023-05-10T09:40:28.516Z,66.20
2023-05-10T09:41:28.525Z,67.33
2023-05-10T09:42:28.516Z,59.12
2023-05-10T09:43:28.501Z,62.33
2023-05-10T09:44:28.534Z,60.13
2023-05-10T09:45:28.493Z,58.80
2023-05-10T09:46:28.480Z,57.34
2023-05-10T09:47:28.472Z,60.65
2023-05-10T09:48:28.441Z,57.13
2023-05-10T09:49:28.439Z,60.88
2023-05-10T09:50:28.437Z,59.51
2023-05-10T09:51:28.423Z,57.53
2023-05-10T09:52:28.398Z,54.94
2023-05-10T09:53:28.390Z,60.25
2023-05-10T09:54:28.367Z,57.81
2023-05-10T09:55:28.395Z,57.23
2023-05-10T09:56:28.360Z,59.24
2023-05-10T09:57:28.348Z,56.94
2023-05-10T09:58:28.333Z,61.45
2023-05-10T09:59:28.380Z,57.81
2023-05-10T10:00:28.369Z,58.35
2023-05-10T10:01:28.386Z,57.42
2023-05-10T10:02:28.326Z,57.82
2023-05-10T10:03:30.368Z,55.38
2023-05-10T10:04:29.347Z,60.11
2023-05-10T10:05:28.270Z,59.28
2023-05-10T10:06:30.433Z,57.78
2023-05-10T10:07:29.230Z,59.64
2023-05-10T10:08:28.234Z,56.50
2023-05-10T10:09:28.262Z,57.65
2023-05-10T10:10:28.206Z,57.97
2023-05-10T10:11:28.184Z,62.93
2023-05-10T10:12:28.176Z,57.69
2023-05-10T10:13:28.163Z,59.41
2023-05-10T10:14:28.199Z,58.95
2023-05-10T10:15:28.143Z,58.03
2023-05-10T10:16:28.329Z,61.63
2023-05-10T10:17:28.150Z,57.48
2023-05-10T10:18:28.324Z,60.14
2023-05-10T10:19:28.100Z,58.35
2023-05-10T10:20:28.093Z,55.36
2023-05-10T10:21:28.180Z,58.73
2023-05-10T10:22:28.088Z,58.50
2023-05-10T10:23:28.102Z,59.35
2023-05-10T10:24:29.194Z,56.22
2023-05-10T10:25:28.130Z,59.75
2023-05-10T10:26:28.140Z,58.01
2023-05-10T10:27:28.027Z,58.27
2023-05-10T10:28:28.361Z,57.50
2023-05-10T10:29:29.069Z,57.99
2023-05-10T10:30:28.152Z,57.49
2023-05-10T10:31:28.069Z,55.63
2023-05-10T10:32:28.128Z,58.28
2023-05-10T10:33:29.117Z,57.59
2023-05-10T10:34:28.039Z,54.30
2023-05-10T10:35:28.057Z,57.75
2023-05-10T10:36:28.155Z,55.68
2023-05-10T10:37:28.046Z,54.39
2023-05-10T10:38:28.144Z,58.27
2023-05-10T10:39:28.124Z,59.91
2023-05-10T10:40:28.054Z,56.91
2023-05-10T10:41:28.135Z,52.23
2023-05-10T10:42:28.030Z,59.71
2023-05-10T10:43:27.999Z,55.45
2023-05-10T10:44:27.902Z,57.38
2023-05-10T10:45:27.978Z,57.64
2023-05-10T10:46:27.990Z,55.37
2023-05-10T10:47:27.917Z,56.86
2023-05-10T10:48:28.050Z,56.91
2023-05-10T10:49:28.076Z,59.59
2023-05-10T10:50:27.835Z,55.10
2023-05-10T10:51:27.870Z,59.57
2023-05-10T10:52:27.856Z,56.47
2023-05-10T10:53:27.945Z,55.04
2023-05-10T10:54:27.834Z,56.23
2023-05-10T10:55:27.768Z,55.86
2023-05-10T10:56:27.781Z,56.38
2023-05-10T10:57:27.818Z,55.41
2023-05-10T10:58:27.778Z,56.49
2023-05-10T10:59:27.757Z,58.15
2023-05-10T11:00:27.774Z,58.23
2023-05-10T11:01:27.817Z,59.43
2023-05-10T11:02:28.343Z,55.96
2023-05-10T11:03:27.666Z,59.46
2023-05-10T11:04:27.887Z,58.13
2023-05-10T11:05:27.710Z,56.42
2023-05-10T11:06:27.739Z,59.65
2023-05-10T11:07:27.737Z,58.23
2023-05-10T11:08:27.761Z,58.25
2023-05-10T11:09:28.013Z,62.88
2023-05-10T11:10:27.733Z,69.90
2023-05-10T11:11:27.749Z,63.18
2023-05-10T11:12:27.620Z,61.80
2023-05-10T11:13:27.554Z,61.64
2023-05-10T11:14:27.634Z,59.88
2023-05-10T11:15:27.595Z,62.11
2023-05-10T11:16:27.612Z,64.47
2023-05-10T11:17:27.551Z,67.21
2023-05-10T11:18:27.595Z,58.47
2023-05-10T11:19:27.495Z,61.28
2023-05-10T11:20:27.590Z,69.17
2023-05-10T11:21:27.611Z,60.01
2023-05-10T11:22:27.490Z,60.74
2023-05-10T11:23:27.588Z,61.78
2023-05-10T11:24:27.858Z,67.44
2023-05-10T11:25:27.673Z,56.39
2023-05-10T11:26:27.668Z,67.18
2023-05-10T11:27:27.665Z,69.93
2023-05-10T11:28:28.101Z,64.14
2023-05-10T11:29:27.836Z,60.96
2023-05-10T11:30:27.943Z,57.35
2023-05-10T11:31:27.931Z,59.86
2023-05-10T11:32:27.664Z,58.17
2023-05-10T11:33:27.619Z,55.87
2023-05-10T11:34:27.458Z,57.63
2023-05-10T11:35:27.703Z,55.07
2023-05-10T11:36:27.768Z,56.18
2023-05-10T11:37:28.137Z,60.08
2023-05-10T11:38:28.441Z,57.35
2023-05-10T11:39:27.485Z,60.16
2023-05-10T11:40:27.983Z,61.44
2023-05-10T11:41:27.440Z,57.84
2023-05-10T11:42:27.519Z,71.48
2023-05-10T11:43:27.305Z,62.27
2023-05-10T11:44:27.481Z,59.38
2023-05-10T11:45:27.598Z,61.01
2023-05-10T11:46:27.400Z,63.84
2023-05-10T11:47:27.308Z,61.77
2023-05-10T11:48:27.316Z,62.15
2023-05-10T11:49:27.401Z,66.92
2023-05-10T11:50:27.415Z,63.40
2023-05-10T11:51:27.269Z,69.08
2023-05-10T11:52:27.375Z,65.33
2023-05-10T11:53:27.244Z,60.25
2023-05-10T11:54:27.248Z,71.40
2023-05-10T11:55:27.317Z,59.64
2023-05-10T11:56:27.364Z,61.43
2023-05-10T11:57:27.266Z,55.03
2023-05-10T11:58:27.724Z,53.03
2023-05-10T11:59:27.357Z,58.62
2023-05-10T12:00:27.663Z,58.98
2023-05-10T12:01:27.471Z,57.99
2023-05-10T12:02:27.376Z,59.94
2023-05-10T12:03:27.485Z,56.77
2023-05-10T12:04:27.340Z,68.41
2023-05-10T12:05:27.278Z,63.11
2023-05-10T12:06:27.079Z,67.70
2023-05-10T12:07:27.190Z,62.52
2023-05-10T12:08:27.490Z,65.91
2023-05-10T12:09:39.650Z,66.77
2023-05-10T12:10:29.085Z,69.26
2023-05-10T12:11:27.169Z,72.14
2023-05-10T12:12:27.031Z,63.17
2023-05-10T12:13:27.015Z,59.94
2023-05-10T12:14:27.062Z,73.07
2023-05-10T12:15:26.962Z,69.57
2023-05-10T12:16:27.263Z,61.80
2023-05-10T12:17:27.159Z,63.24
2023-05-10T12:18:27.170Z,60.94
2023-05-10T12:19:27.079Z,63.98
2023-05-10T12:20:26.996Z,58.07
2023-05-10T12:21:26.946Z,59.55
2023-05-10T12:22:27.079Z,60.90
2023-05-10T12:23:26.914Z,59.41
2023-05-10T12:24:26.840Z,59.86
2023-05-10T12:25:26.791Z,59.13
2023-05-10T12:26:26.709Z,60.46
2023-05-10T12:27:26.686Z,58.75
2023-05-10T12:28:26.693Z,60.86
2023-05-10T12:29:26.672Z,60.94
2023-05-10T12:30:26.726Z,61.31
2023-05-10T12:31:26.667Z,60.16
2023-05-10T12:32:26.705Z,59.48
2023-05-10T12:33:26.634Z,60.88
2023-05-10T12:34:26.643Z,61.50
2023-05-10T12:35:26.631Z,58.57
2023-05-10T12:36:26.613Z,61.19
2023-05-10T12:37:26.577Z,59.45
2023-05-10T12:38:26.583Z,59.97
2023-05-10T12:39:26.569Z,58.51
2023-05-10T12:40:26.558Z,61.35
2023-05-10T12:41:26.566Z,59.83
2023-05-10T12:42:26.523Z,60.18
2023-05-10T12:43:26.549Z,59.99
2023-05-10T12:44:26.540Z,62.98
2023-05-10T12:45:26.509Z,61.35
2023-05-10T12:46:26.678Z,62.52
2023-05-10T12:47:26.607Z,60.61
2023-05-10T12:48:26.476Z,59.29
2023-05-10T12:49:26.488Z,60.75
2023-05-10T12:50:26.451Z,60.15
2023-05-10T12:51:26.481Z,62.10
2023-05-10T12:52:26.482Z,59.53